createdAt,value
2019-04-20T00:00:09.437Z,4.83
2019-04-20T00:01:24.545Z,4.83
2019-04-20T00:02:13.850Z,4.82
2019-04-20T00:02:59.769Z,4.80
2019-04-20T00:03:50.109Z,4.78
2019-04-20T00:04:39.302Z,4.77
2019-04-20T00:05:30.857Z,4.75
2019-04-20T00:06:21.531Z,4.74
2019-04-20T00:07:12.242Z,4.74
2019-04-20T00:08:09.133Z,4.72
2019-04-20T00:09:03.515Z,4.70
2019-04-20T00:09:50.245Z,4.69
2019-04-20T00:10:45.219Z,4.69
2019-04-20T00:11:36.525Z,4.67
2019-04-20T00:12:33.253Z,4.67
2019-04-20T00:13:23.005Z,4.66
2019-04-20T00:14:08.290Z,4.65
2019-04-20T00:14:52.252Z,4.65
2019-04-20T00:15:44.988Z,4.63
2019-04-20T00:16:35.685Z,4.63
2019-04-20T00:17:26.625Z,4.61
2019-04-20T00:18:17.076Z,4.61
2019-04-20T00:19:09.417Z,4.59
2019-04-20T00:20:04.668Z,4.59
2019-04-20T00:21:00.319Z,4.57
2019-04-20T00:22:02.037Z,4.56
2019-04-20T00:22:59.861Z,4.55
2019-04-20T00:23:54.786Z,4.54
2019-04-20T00:25:10.063Z,4.52
2019-04-20T00:27:09.227Z,4.51
2019-04-20T00:27:50.497Z,4.48
2019-04-20T00:28:40.023Z,4.45
2019-04-20T00:29:29.426Z,4.44
2019-04-20T00:30:26.448Z,4.43
2019-04-20T00:31:13.854Z,4.40
2019-04-20T00:32:01.639Z,4.38
2019-04-20T00:32:53.340Z,4.38
2019-04-20T00:33:45.837Z,4.37
2019-04-20T00:34:25.588Z,4.36
2019-04-20T00:35:12.425Z,4.35
2019-04-20T00:36:03.278Z,4.34
2019-04-20T00:36:54.118Z,4.33
2019-04-20T00:37:46.694Z,4.33
2019-04-20T00:38:42.648Z,4.34
2019-04-20T00:39:29.851Z,4.33
2019-04-20T00:40:21.270Z,4.32
2019-04-20T00:41:13.689Z,4.31
2019-04-20T00:42:06.125Z,4.31
2019-04-20T00:42:55.157Z,4.31
2019-04-20T00:43:44.220Z,4.30
2019-04-20T00:44:39.571Z,4.31
2019-04-20T00:45:31.500Z,4.30
2019-04-20T00:46:26.430Z,4.30
2019-04-20T00:47:20.076Z,4.30
2019-04-20T00:48:05.692Z,4.30
2019-04-20T00:48:55.939Z,4.29
2019-04-20T00:49:53.624Z,4.29
2019-04-20T00:50:44.501Z,4.28
2019-04-20T00:51:39.119Z,4.26
2019-04-20T00:52:30.735Z,4.26
2019-04-20T00:53:19.861Z,4.26
2019-04-20T00:53:59.256Z,4.24
2019-04-20T00:54:49.427Z,4.23
2019-04-20T00:55:42.222Z,4.22
2019-04-20T00:56:33.009Z,4.22
2019-04-20T00:57:34.620Z,4.22
2019-04-20T00:58:23.632Z,4.20
2019-04-20T00:59:20.486Z,4.20
2019-04-20T01:00:19.810Z,4.18
2019-04-20T01:01:16.489Z,4.18
2019-04-20T01:01:59.845Z,4.17
2019-04-20T01:02:43.526Z,4.16
2019-04-20T01:03:41.273Z,4.15
2019-04-20T01:04:30.084Z,4.13
2019-04-20T01:05:18.071Z,4.13
2019-04-20T01:06:22.215Z,4.08
2019-04-20T01:07:20.278Z,4.10
2019-04-20T01:08:33.967Z,4.09
2019-04-20T01:09:27.349Z,4.06
2019-04-20T01:10:19.391Z,4.03
2019-04-20T01:11:10.753Z,4.00
2019-04-20T01:12:11.736Z,4.00
2019-04-20T01:13:03.405Z,3.97
2019-04-20T01:13:49.399Z,3.95
2019-04-20T01:14:46.240Z,3.93
2019-04-20T01:15:36.395Z,3.91
2019-04-20T01:16:25.521Z,3.90
2019-04-20T01:17:12.152Z,3.89
2019-04-20T01:18:01.358Z,3.87
2019-04-20T01:18:52.264Z,3.84
2019-04-20T01:19:42.415Z,3.82
2019-04-20T01:20:33.241Z,3.81
2019-04-20T01:21:27.143Z,3.79
2019-04-20T01:22:18.479Z,3.78
2019-04-20T01:23:10.014Z,3.76
2019-04-20T01:24:01.533Z,3.74
2019-04-20T01:24:48.716Z,3.74
2019-04-20T01:25:42.453Z,3.72
2019-04-20T01:26:29.420Z,3.72
2019-04-20T01:27:34.556Z,3.71
2019-04-20T01:28:27.840Z,3.71
2019-04-20T01:29:12.164Z,3.70
2019-04-20T01:30:03.366Z,3.70
2019-04-20T01:30:58.544Z,3.69
2019-04-20T01:31:45.200Z,3.69
2019-04-20T01:32:36.028Z,3.69
2019-04-20T01:33:31.868Z,3.69
2019-04-20T01:34:26.690Z,3.64
2019-04-20T01:35:21.486Z,3.62
2019-04-20T01:36:03.250Z,3.62
2019-04-20T01:36:55.614Z,3.58
2019-04-20T01:37:52.238Z,3.62
2019-04-20T01:38:39.901Z,3.61
2019-04-20T01:39:23.958Z,3.61
2019-04-20T01:40:07.766Z,3.60
2019-04-20T01:40:57.141Z,3.58
2019-04-20T01:41:47.567Z,3.58
2019-04-20T01:42:38.079Z,3.57
2019-04-20T01:43:29.115Z,3.56
2019-04-20T01:44:27.006Z,3.57
2019-04-20T01:45:14.629Z,3.56
2019-04-20T01:46:11.274Z,3.55
2019-04-20T01:46:58.730Z,3.54
2019-04-20T01:47:50.541Z,3.53
2019-04-20T01:48:38.649Z,3.51
2019-04-20T01:49:32.394Z,3.50
2019-04-20T01:50:24.712Z,3.51
2019-04-20T01:51:17.308Z,3.49
2019-04-20T01:52:10.975Z,3.48
2019-04-20T01:53:09.009Z,3.48
2019-04-20T01:54:06.523Z,3.46
2019-04-20T01:54:59.160Z,3.44
2019-04-20T01:56:01.590Z,3.44
2019-04-20T01:56:36.149Z,3.43
2019-04-20T01:57:32.224Z,3.42
2019-04-20T01:58:36.396Z,3.42
2019-04-20T01:59:37.075Z,3.38
2019-04-20T02:00:49.635Z,3.38
2019-04-20T02:02:09.896Z,3.36
2019-04-20T02:03:15.030Z,3.34
2019-04-20T02:04:22.456Z,3.32
2019-04-20T02:05:20.761Z,3.30
2019-04-20T02:06:08.263Z,3.27
2019-04-20T02:06:59.567Z,3.27
2019-04-20T02:07:48.662Z,3.26
2019-04-20T02:08:37.728Z,3.24
2019-04-20T02:09:31.150Z,3.23
2019-04-20T02:10:21.780Z,3.23
2019-04-20T02:11:18.651Z,3.23
2019-04-20T02:12:10.395Z,3.22
2019-04-20T02:12:57.560Z,3.22
2019-04-20T02:13:51.260Z,3.21
2019-04-20T02:14:41.210Z,3.16
2019-04-20T02:15:33.220Z,3.20
2019-04-20T02:16:27.588Z,3.18
2019-04-20T02:17:16.774Z,3.18
2019-04-20T02:18:07.711Z,3.16
2019-04-20T02:19:06.566Z,3.17
2019-04-20T02:20:00.978Z,3.18
2019-04-20T02:20:50.272Z,3.16
2019-04-20T02:21:37.872Z,3.17
2019-04-20T02:22:30.308Z,3.17
2019-04-20T02:23:16.074Z,3.16
2019-04-20T02:23:57.992Z,3.16
2019-04-20T02:24:44.888Z,3.15
2019-04-20T02:25:35.851Z,3.13
2019-04-20T02:26:28.160Z,3.12
2019-04-20T02:27:20.629Z,3.13
2019-04-20T02:28:29.774Z,3.10
2019-04-20T02:29:24.688Z,3.09
2019-04-20T02:30:21.661Z,3.08
2019-04-20T02:31:23.021Z,3.08
2019-04-20T02:33:14.634Z,3.07
2019-04-20T02:33:59.237Z,3.06
2019-04-20T02:34:59.359Z,3.06
2019-04-20T02:36:20.867Z,3.07
2019-04-20T02:37:13.892Z,3.04
2019-04-20T02:38:10.552Z,3.03
2019-04-20T02:39:31.038Z,3.02
2019-04-20T02:40:00.860Z,3.02
2019-04-20T02:40:52.574Z,3.02
2019-04-20T02:41:44.872Z,3.00
2019-04-20T02:42:38.664Z,2.99
2019-04-20T02:43:30.475Z,2.97
2019-04-20T02:44:23.566Z,2.96
2019-04-20T02:47:47.783Z,2.95
2019-04-20T02:48:35.670Z,2.93
2019-04-20T02:49:36.280Z,2.93
2019-04-20T02:50:19.134Z,2.91
2019-04-20T02:51:06.605Z,2.89
2019-04-20T02:52:56.886Z,2.84
2019-04-20T02:53:51.182Z,2.88
2019-04-20T02:54:26.683Z,2.88
2019-04-20T02:55:22.839Z,2.86
2019-04-20T02:56:26.557Z,2.86
2019-04-20T02:58:00.729Z,2.85
2019-04-20T02:58:50.289Z,2.84
2019-04-20T03:00:25.122Z,2.82
2019-04-20T03:01:30.925Z,2.82
2019-04-20T03:02:23.786Z,2.81
2019-04-20T03:03:07.818Z,2.75
2019-04-20T03:03:51.119Z,2.79
2019-04-20T03:04:47.163Z,2.77
2019-04-20T03:05:41.398Z,2.76
2019-04-20T03:06:33.041Z,2.76
2019-04-20T03:07:28.148Z,2.77
2019-04-20T03:08:22.108Z,2.77
2019-04-20T03:09:17.452Z,2.77
2019-04-20T03:10:03.936Z,2.77
2019-04-20T03:11:05.816Z,2.75
2019-04-20T03:11:53.001Z,2.75
2019-04-20T03:12:38.843Z,2.75
2019-04-20T03:13:25.370Z,2.74
2019-04-20T03:14:15.684Z,2.73
2019-04-20T03:15:01.620Z,2.72
2019-04-20T03:16:01.790Z,2.72
2019-04-20T03:16:51.751Z,2.74
2019-04-20T03:17:46.025Z,2.73
2019-04-20T03:18:34.015Z,2.73
2019-04-20T03:19:17.353Z,2.72
2019-04-20T03:20:18.819Z,2.71
2019-04-20T03:21:08.136Z,2.73
2019-04-20T03:21:59.776Z,2.70
2019-04-20T03:23:15.921Z,2.68
2019-04-20T03:23:44.183Z,2.65
2019-04-20T03:24:35.696Z,2.65
2019-04-20T03:25:46.688Z,2.61
2019-04-20T03:26:36.555Z,2.59
2019-04-20T03:27:33.777Z,2.58
2019-04-20T03:28:42.980Z,2.56
2019-04-20T03:29:52.344Z,2.54
2019-04-20T03:31:29.483Z,2.52
2019-04-20T03:32:30.634Z,2.49
2019-04-20T03:33:11.765Z,2.45
2019-04-20T03:34:00.742Z,2.45
2019-04-20T03:35:28.339Z,2.41
2019-04-20T03:36:25.190Z,2.40
2019-04-20T03:37:17.084Z,2.39
2019-04-20T03:38:00.044Z,2.37
2019-04-20T03:38:48.447Z,2.37
2019-04-20T03:39:37.609Z,2.36
2019-04-20T03:40:24.326Z,2.34
2019-04-20T03:41:14.865Z,2.34
2019-04-20T03:41:56.674Z,2.33
2019-04-20T03:42:44.730Z,2.29
2019-04-20T03:43:34.915Z,2.30
2019-04-20T03:44:27.785Z,2.29
2019-04-20T03:45:21.038Z,2.29
2019-04-20T03:46:12.570Z,2.28
2019-04-20T03:47:04.562Z,2.28
2019-04-20T03:48:05.400Z,2.27
2019-04-20T03:48:54.658Z,2.26
2019-04-20T03:49:55.052Z,2.25
2019-04-20T03:50:46.366Z,2.25
2019-04-20T03:51:33.310Z,2.25
2019-04-20T03:52:24.630Z,2.23
2019-04-20T03:53:23.051Z,2.23
2019-04-20T03:54:22.222Z,2.23
2019-04-20T03:55:18.748Z,2.22
2019-04-20T03:56:28.051Z,2.22
2019-04-20T03:57:34.351Z,2.21
2019-04-20T03:58:42.360Z,2.20
2019-04-20T03:59:44.626Z,2.18
2019-04-20T04:00:50.812Z,2.16
2019-04-20T04:03:20.226Z,2.17
2019-04-20T04:04:17.487Z,2.16
2019-04-20T04:05:08.859Z,2.15
2019-04-20T04:06:06.429Z,2.15
2019-04-20T04:06:51.681Z,2.15
2019-04-20T04:07:43.183Z,2.14
2019-04-20T04:08:36.385Z,2.13
2019-04-20T04:09:30.521Z,2.14
2019-04-20T04:10:25.861Z,2.13
2019-04-20T04:11:19.969Z,2.13
2019-04-20T04:12:05.728Z,2.13
2019-04-20T04:13:09.712Z,2.14
2019-04-20T04:14:01.210Z,2.14
2019-04-20T04:14:53.693Z,2.13
2019-04-20T04:15:50.290Z,2.13
2019-04-20T04:16:42.203Z,2.14
2019-04-20T04:17:30.296Z,2.13
2019-04-20T04:18:23.311Z,2.12
2019-04-20T04:19:16.185Z,2.12
2019-04-20T04:20:03.514Z,2.12
2019-04-20T04:20:55.505Z,2.11
2019-04-20T04:21:53.741Z,2.11
2019-04-20T04:22:44.079Z,2.10
2019-04-20T04:23:38.065Z,2.09
2019-04-20T04:24:22.620Z,2.10
2019-04-20T04:25:14.820Z,2.09
2019-04-20T04:26:08.528Z,2.09
2019-04-20T04:26:54.829Z,2.09
2019-04-20T04:27:56.096Z,2.09
2019-04-20T04:28:40.889Z,2.11
2019-04-20T04:29:38.255Z,2.08
2019-04-20T04:30:21.885Z,2.08
2019-04-20T04:31:15.730Z,2.08
2019-04-20T04:32:25.545Z,2.09
2019-04-20T04:33:20.198Z,2.08
2019-04-20T04:33:55.542Z,2.08
2019-04-20T04:34:46.883Z,2.08
2019-04-20T04:35:27.147Z,2.08
2019-04-20T04:36:22.197Z,2.08
2019-04-20T04:37:17.608Z,2.08
2019-04-20T04:38:09.427Z,2.08
2019-04-20T04:39:02.561Z,2.08
2019-04-20T04:39:49.055Z,2.08
2019-04-20T04:40:51.488Z,2.08
2019-04-20T04:41:37.967Z,2.08
2019-04-20T04:42:30.412Z,2.08
2019-04-20T04:43:19.783Z,2.09
2019-04-20T04:44:09.645Z,2.08
2019-04-20T04:44:50.577Z,2.09
2019-04-20T04:45:33.970Z,2.09
2019-04-20T04:46:24.846Z,2.09
2019-04-20T04:47:15.299Z,2.10
2019-04-20T04:48:06.695Z,2.11
2019-04-20T04:49:08.766Z,2.11
2019-04-20T04:49:59.977Z,2.13
2019-04-20T04:50:47.504Z,2.12
2019-04-20T04:51:42.701Z,2.12
2019-04-20T04:52:34.201Z,2.13
2019-04-20T04:53:34.794Z,2.13
2019-04-20T04:54:16.763Z,2.14
2019-04-20T04:55:12.120Z,2.14
2019-04-20T04:55:56.457Z,2.15
2019-04-20T04:56:39.677Z,2.16
2019-04-20T04:57:30.501Z,2.17
2019-04-20T04:58:21.588Z,2.17
2019-04-20T04:59:13.280Z,2.19
2019-04-20T05:00:05.691Z,2.21
2019-04-20T05:01:05.544Z,2.22
2019-04-20T05:01:54.786Z,2.22
2019-04-20T05:02:48.893Z,2.23
2019-04-20T05:03:54.033Z,2.25
2019-04-20T05:05:06.957Z,2.26
2019-04-20T05:06:14.767Z,2.27
2019-04-20T05:06:59.506Z,2.29
2019-04-20T05:07:51.801Z,2.31
2019-04-20T05:08:41.145Z,2.31
2019-04-20T05:09:25.493Z,2.32
2019-04-20T05:10:16.063Z,2.34
2019-04-20T05:11:08.885Z,2.35
2019-04-20T05:12:05.489Z,2.36
2019-04-20T05:12:48.268Z,2.38
2019-04-20T05:13:49.035Z,2.39
2019-04-20T05:14:40.575Z,2.42
2019-04-20T05:15:37.376Z,2.43
2019-04-20T05:16:35.963Z,2.45
2019-04-20T05:17:20.697Z,2.47
2019-04-20T05:18:11.922Z,2.49
2019-04-20T05:19:13.248Z,2.51
2019-04-20T05:19:57.486Z,2.54
2019-04-20T05:20:54.661Z,2.55
2019-04-20T05:22:01.297Z,2.57
2019-04-20T05:22:58.199Z,2.59
2019-04-20T05:24:07.588Z,2.62
2019-04-20T05:25:07.102Z,2.65
2019-04-20T05:26:30.796Z,2.67
2019-04-20T05:27:39.162Z,2.71
2019-04-20T05:28:25.336Z,2.74
2019-04-20T05:29:10.762Z,2.77
2019-04-20T05:29:53.306Z,2.80
2019-04-20T05:30:48.600Z,2.82
2019-04-20T05:31:46.231Z,2.85
2019-04-20T05:32:35.850Z,2.87
2019-04-20T05:33:27.765Z,2.90
2019-04-20T05:34:30.518Z,2.93
2019-04-20T05:35:23.274Z,2.98
2019-04-20T05:36:14.719Z,3.01
2019-04-20T05:36:57.522Z,3.04
2019-04-20T05:38:02.723Z,3.08
2019-04-20T05:38:48.149Z,3.11
2019-04-20T05:39:38.221Z,3.15
2019-04-20T05:40:29.178Z,3.20
2019-04-20T05:41:16.982Z,3.23
2019-04-20T05:42:12.790Z,3.27
2019-04-20T05:43:06.478Z,3.31
2019-04-20T05:44:12.805Z,3.35
2019-04-20T05:45:07.564Z,3.39
2019-04-20T05:45:50.196Z,3.45
2019-04-20T05:46:56.598Z,3.48
2019-04-20T05:47:40.177Z,3.52
2019-04-20T05:48:36.247Z,3.56
2019-04-20T05:49:25.882Z,3.62
2019-04-20T05:50:08.339Z,3.65
2019-04-20T05:51:01.973Z,3.69
2019-04-20T05:51:54.310Z,3.73
2019-04-20T05:53:41.252Z,3.83
2019-04-20T05:54:36.475Z,3.87
2019-04-20T05:55:21.016Z,3.92
2019-04-20T05:56:10.842Z,3.96
2019-04-20T05:57:07.817Z,4.01
2019-04-20T05:57:56.753Z,4.06
2019-04-20T05:58:45.057Z,4.11
2019-04-20T05:59:47.019Z,4.16
2019-04-20T06:00:34.560Z,4.21
2019-04-20T06:01:20.224Z,4.25
2019-04-20T06:02:14.049Z,4.30
2019-04-20T06:03:00.491Z,4.37
2019-04-20T06:03:55.634Z,4.42
2019-04-20T06:04:59.655Z,4.47
2019-04-20T06:05:46.011Z,4.53
2019-04-20T06:06:33.142Z,4.58
2019-04-20T06:07:26.868Z,4.62
2019-04-20T06:08:20.416Z,4.68
2019-04-20T06:09:12.037Z,4.73
2019-04-20T06:10:00.597Z,4.77
2019-04-20T06:11:12.382Z,4.83
2019-04-20T06:12:07.615Z,4.87
2019-04-20T06:12:51.934Z,4.94
2019-04-20T06:13:53.491Z,4.99
2019-04-20T06:15:05.568Z,5.04
2019-04-20T06:16:07.832Z,5.10
2019-04-20T06:17:11.145Z,5.17
2019-04-20T06:18:06.586Z,5.21
2019-04-20T06:19:17.547Z,5.26
2019-04-20T06:20:02.380Z,5.34
2019-04-20T06:20:50.394Z,5.42
2019-04-20T06:21:57.688Z,5.45
2019-04-20T06:22:52.698Z,5.50
2019-04-20T06:23:53.195Z,5.57
2019-04-20T06:24:49.447Z,5.62
2019-04-20T06:25:58.612Z,5.68
2019-04-20T06:26:51.945Z,5.74
2019-04-20T06:27:34.176Z,5.82
2019-04-20T06:28:19.703Z,5.86
2019-04-20T06:29:09.702Z,5.92
2019-04-20T06:30:04.273Z,5.96
2019-04-20T06:30:49.434Z,6.01
2019-04-20T06:31:48.987Z,6.07
2019-04-20T06:33:50.259Z,6.13
2019-04-20T06:34:35.517Z,6.19
2019-04-20T06:35:18.929Z,6.30
2019-04-20T06:36:13.417Z,6.34
2019-04-20T06:37:56.495Z,6.43
2019-04-20T06:39:48.749Z,6.53
2019-04-20T06:40:37.304Z,6.58
2019-04-20T06:41:21.529Z,6.64
2019-04-20T06:42:13.982Z,6.69
2019-04-20T06:42:59.718Z,6.74
2019-04-20T06:43:54.311Z,6.80
2019-04-20T06:44:59.706Z,6.83
2019-04-20T06:45:35.029Z,6.89
2019-04-20T06:46:22.501Z,6.94
2019-04-20T06:47:15.505Z,6.99
2019-04-20T06:48:20.402Z,7.05
2019-04-20T06:49:05.596Z,7.10
2019-04-20T06:49:45.302Z,7.16
2019-04-20T06:50:38.501Z,7.21
2019-04-20T06:51:36.108Z,7.25
2019-04-20T06:52:40.887Z,7.31
2019-04-20T06:53:47.475Z,7.36
2019-04-20T06:54:42.214Z,7.43
2019-04-20T06:55:38.621Z,7.48
2019-04-20T06:56:29.565Z,7.54
2019-04-20T06:57:18.366Z,7.59
2019-04-20T06:58:20.525Z,7.66
2019-04-20T06:59:08.412Z,7.70
2019-04-20T06:59:47.699Z,7.77
2019-04-20T07:00:44.496Z,7.82
2019-04-20T07:01:36.976Z,7.89
2019-04-20T07:02:29.890Z,7.93
2019-04-20T07:03:18.437Z,7.98
2019-04-20T07:04:21.194Z,8.02
2019-04-20T07:04:55.958Z,8.08
2019-04-20T07:05:47.716Z,8.14
2019-04-20T07:07:00.524Z,8.18
2019-04-20T07:07:33.912Z,8.24
2019-04-20T07:08:33.388Z,8.30
2019-04-20T07:09:15.325Z,8.35
2019-04-20T07:10:57.856Z,8.43
2019-04-20T07:11:46.743Z,8.51
2019-04-20T07:12:36.889Z,8.54
2019-04-20T07:13:24.064Z,8.63
2019-04-20T07:14:08.539Z,8.67
2019-04-20T07:15:09.719Z,8.72
2019-04-20T07:16:13.771Z,8.77
2019-04-20T07:17:43.825Z,8.82
2019-04-20T07:18:15.716Z,8.87
2019-04-20T07:19:24.008Z,8.92
2019-04-20T07:20:19.475Z,8.97
2019-04-20T07:21:35.420Z,9.03
2019-04-20T07:22:36.072Z,9.08
2019-04-20T07:23:18.191Z,9.11
2019-04-20T07:24:05.062Z,9.16
2019-04-20T07:24:59.291Z,9.21
2019-04-20T07:25:52.750Z,9.25
2019-04-20T07:26:41.667Z,9.30
2019-04-20T07:27:33.642Z,9.35
2019-04-20T07:28:22.921Z,9.40
2019-04-20T07:29:15.744Z,9.45
2019-04-20T07:30:03.805Z,9.51
2019-04-20T07:30:50.271Z,9.56
2019-04-20T07:31:41.359Z,9.61
2019-04-20T07:32:44.350Z,9.67
2019-04-20T07:33:30.342Z,9.71
2019-04-20T07:34:23.012Z,9.76
2019-04-20T07:35:09.850Z,9.81
2019-04-20T07:36:04.105Z,9.85
2019-04-20T07:37:19.348Z,9.91
2019-04-20T07:38:10.419Z,9.96
2019-04-20T07:38:40.233Z,9.99
2019-04-20T07:39:32.783Z,10.05
2019-04-20T07:40:23.219Z,10.10
2019-04-20T07:41:08.730Z,10.15
2019-04-20T07:42:12.022Z,10.20
2019-04-20T07:43:52.981Z,10.30
2019-04-20T07:44:41.412Z,10.35
2019-04-20T07:45:29.566Z,10.40
2019-04-20T07:46:37.625Z,10.46
2019-04-20T07:47:13.778Z,10.50
2019-04-20T07:48:09.319Z,10.56
2019-04-20T07:48:59.900Z,10.62
2019-04-20T07:49:44.367Z,10.65
2019-04-20T07:50:32.107Z,10.72
2019-04-20T07:51:16.144Z,10.77
2019-04-20T07:51:58.005Z,10.81
2019-04-20T07:53:04.427Z,10.86
2019-04-20T07:54:10.644Z,10.92
2019-04-20T07:55:12.138Z,11.02
2019-04-20T07:55:52.380Z,11.06
2019-04-20T07:56:39.830Z,11.05
2019-04-20T07:57:25.305Z,11.17
2019-04-20T07:58:10.925Z,11.21
2019-04-20T07:58:55.306Z,11.26
2019-04-20T08:00:03.327Z,11.33
2019-04-20T08:02:12.001Z,11.45
2019-04-20T08:03:12.754Z,11.50
2019-04-20T08:04:06.640Z,11.58
2019-04-20T08:04:55.046Z,11.65
2019-04-20T08:05:53.804Z,11.71
2019-04-20T08:06:43.387Z,11.78
2019-04-20T08:07:39.186Z,11.85
2019-04-20T08:08:32.727Z,11.91
2019-04-20T08:09:22.234Z,11.96
2019-04-20T08:10:09.128Z,12.04
2019-04-20T08:11:12.675Z,12.11
2019-04-20T08:12:11.304Z,12.18
2019-04-20T08:13:09.546Z,12.25
2019-04-20T08:13:51.399Z,12.32
2019-04-20T08:14:50.144Z,12.37
2019-04-20T08:15:46.150Z,12.44
2019-04-20T08:16:38.252Z,12.53
2019-04-20T08:17:41.898Z,12.59
2019-04-20T08:18:12.088Z,12.66
2019-04-20T08:19:00.936Z,12.73
2019-04-20T08:19:46.350Z,12.79
2019-04-20T08:20:43.839Z,12.85
2019-04-20T08:21:35.089Z,12.90
2019-04-20T08:22:26.602Z,12.95
2019-04-20T08:23:17.144Z,13.01
2019-04-20T08:24:02.466Z,13.06
2019-04-20T08:24:52.418Z,13.12
2019-04-20T08:25:39.642Z,13.17
2019-04-20T08:26:26.115Z,13.24
2019-04-20T08:27:13.177Z,13.30
2019-04-20T08:28:35.866Z,13.35
2019-04-20T08:29:41.740Z,13.39
2019-04-20T08:30:33.958Z,13.50
2019-04-20T08:31:55.915Z,13.54
2019-04-20T08:33:13.143Z,13.60
2019-04-20T08:34:28.258Z,13.66
2019-04-20T08:35:07.110Z,13.74
2019-04-20T08:35:53.952Z,13.80
2019-04-20T08:36:47.809Z,13.84
2019-04-20T08:37:32.948Z,13.89
2019-04-20T08:40:12.056Z,14.04
2019-04-20T08:41:00.303Z,14.09
2019-04-20T08:41:57.070Z,14.13
2019-04-20T08:42:57.262Z,14.20
2019-04-20T08:43:47.037Z,14.26
2019-04-20T08:45:16.363Z,14.38
2019-04-20T08:46:05.507Z,14.43
2019-04-20T08:47:24.204Z,14.48
2019-04-20T08:47:57.138Z,14.54
2019-04-20T08:48:43.500Z,14.60
2019-04-20T08:49:35.449Z,14.65
2019-04-20T08:50:22.384Z,14.70
2019-04-20T08:51:16.532Z,14.75
2019-04-20T08:52:52.067Z,14.82
2019-04-20T08:53:12.762Z,14.88
2019-04-20T08:53:47.107Z,14.94
2019-04-20T08:54:34.348Z,14.99
2019-04-20T08:55:29.478Z,15.04
2019-04-20T08:56:14.544Z,15.09
2019-04-20T08:56:57.143Z,15.16
2019-04-20T08:57:46.795Z,15.23
2019-04-20T08:58:37.110Z,15.28
2019-04-20T08:59:28.928Z,15.32
2019-04-20T09:00:27.500Z,15.38
2019-04-20T09:01:20.215Z,15.45
2019-04-20T09:02:08.395Z,15.50
2019-04-20T09:03:00.901Z,15.55
2019-04-20T09:03:56.533Z,15.61
2019-04-20T09:04:46.084Z,15.67
2019-04-20T09:05:41.352Z,15.74
2019-04-20T09:06:32.320Z,15.81
2019-04-20T09:07:18.115Z,15.89
2019-04-20T09:08:11.366Z,15.96
2019-04-20T09:09:11.695Z,16.06
2019-04-20T09:10:14.359Z,16.14
2019-04-20T09:10:54.137Z,16.21
2019-04-20T09:11:49.549Z,16.29
2019-04-20T09:12:35.422Z,16.37
2019-04-20T09:13:22.289Z,16.45
2019-04-20T09:14:18.752Z,16.52
2019-04-20T09:15:12.435Z,16.58
2019-04-20T09:16:02.183Z,16.66
2019-04-20T09:17:02.818Z,16.72
2019-04-20T09:18:00.597Z,16.77
2019-04-20T09:18:56.685Z,16.84
2019-04-20T09:19:46.808Z,16.91
2019-04-20T09:20:36.557Z,16.96
2019-04-20T09:21:30.889Z,17.03
2019-04-20T09:22:40.221Z,17.08
2019-04-20T09:23:36.785Z,17.14
2019-04-20T09:24:34.651Z,17.23
2019-04-20T09:25:42.835Z,17.31
2019-04-20T09:26:29.399Z,17.37
2019-04-20T09:27:04.727Z,17.44
2019-04-20T09:27:45.907Z,17.50
2019-04-20T09:28:59.240Z,17.55
2019-04-20T09:29:43.782Z,17.61
2019-04-20T09:30:37.289Z,17.68
2019-04-20T09:31:36.891Z,17.76
2019-04-20T09:32:28.700Z,17.82
2019-04-20T09:33:41.991Z,17.88
2019-04-20T09:34:42.372Z,17.95
2019-04-20T09:35:33.246Z,18.02
2019-04-20T09:36:18.498Z,18.10
2019-04-20T09:37:44.637Z,18.15
2019-04-20T09:38:30.021Z,18.21
2019-04-20T09:40:04.319Z,18.31
2019-04-20T09:40:54.265Z,18.35
2019-04-20T09:41:58.474Z,18.41
2019-04-20T09:42:36.846Z,18.45
2019-04-20T09:43:38.984Z,18.50
2019-04-20T09:44:31.496Z,18.55
2019-04-20T09:45:33.029Z,18.62
2019-04-20T09:46:15.711Z,18.65
2019-04-20T09:47:07.338Z,18.71
2019-04-20T09:47:58.145Z,18.76
2019-04-20T09:48:55.604Z,18.79
2019-04-20T09:49:49.804Z,18.84
2019-04-20T09:50:47.585Z,18.88
2019-04-20T09:51:42.384Z,18.91
2019-04-20T09:52:27.849Z,18.94
2019-04-20T09:53:19.743Z,18.98
2019-04-20T09:54:04.032Z,19.02
2019-04-20T09:54:59.297Z,19.07
2019-04-20T09:55:53.616Z,19.10
2019-04-20T09:56:39.520Z,19.13
2019-04-20T09:57:38.057Z,19.16
2019-04-20T09:58:21.342Z,19.19
2019-04-20T09:59:26.896Z,19.22
2019-04-20T10:00:11.795Z,19.24
2019-04-20T10:01:03.344Z,19.29
2019-04-20T10:01:43.694Z,19.33
2019-04-20T10:02:32.487Z,19.37
2019-04-20T10:03:18.825Z,19.39
2019-04-20T10:04:11.042Z,19.43
2019-04-20T10:05:02.031Z,19.45
2019-04-20T10:05:53.769Z,19.48
2019-04-20T10:06:43.619Z,19.51
2019-04-20T10:07:37.282Z,19.53
2019-04-20T10:08:27.535Z,19.56
2019-04-20T10:09:20.422Z,19.57
2019-04-20T10:10:22.697Z,19.60
2019-04-20T10:10:59.499Z,19.63
2019-04-20T10:11:51.605Z,19.65
2019-04-20T10:12:43.937Z,19.66
2019-04-20T10:13:34.360Z,19.69
2019-04-20T10:14:24.923Z,19.73
2019-04-20T10:15:21.363Z,19.76
2019-04-20T10:16:08.329Z,19.79
2019-04-20T10:17:00.074Z,19.81
2019-04-20T10:17:49.974Z,19.86
2019-04-20T10:18:45.499Z,19.90
2019-04-20T10:19:34.646Z,19.95
2019-04-20T10:20:28.228Z,19.99
2019-04-20T10:21:13.755Z,20.06
2019-04-20T10:22:04.548Z,20.11
2019-04-20T10:22:54.426Z,20.13
2019-04-20T10:23:45.598Z,20.17
2019-04-20T10:24:36.964Z,20.25
2019-04-20T10:25:28.674Z,20.32
2019-04-20T10:26:18.957Z,20.36
2019-04-20T10:27:12.597Z,20.40
2019-04-20T10:28:03.358Z,20.44
2019-04-20T10:28:52.879Z,20.48
2019-04-20T10:29:44.109Z,20.52
2019-04-20T10:30:34.913Z,20.54
2019-04-20T10:31:26.464Z,20.56
2019-04-20T10:32:17.888Z,20.59
2019-04-20T10:33:07.886Z,20.63
2019-04-20T10:33:59.762Z,20.67
2019-04-20T10:34:50.697Z,20.69
2019-04-20T10:35:41.655Z,20.73
2019-04-20T10:37:01.708Z,20.76
2019-04-20T10:38:01.029Z,20.79
2019-04-20T10:38:54.760Z,20.81
2019-04-20T10:39:44.702Z,20.84
2019-04-20T10:40:47.334Z,20.84
2019-04-20T10:41:36.014Z,20.86
2019-04-20T10:42:18.339Z,20.88
2019-04-20T10:43:10.228Z,20.92
2019-04-20T10:44:00.755Z,20.92
2019-04-20T10:44:54.877Z,20.96
2019-04-20T10:45:42.017Z,21.02
2019-04-20T10:46:33.301Z,21.02
2019-04-20T10:47:25.421Z,21.06
2019-04-20T10:48:17.352Z,21.12
2019-04-20T10:49:09.469Z,21.12
2019-04-20T10:50:00.926Z,21.19
2019-04-20T10:50:52.713Z,21.19
2019-04-20T10:51:43.953Z,21.23
2019-04-20T10:52:33.976Z,21.26
2019-04-20T10:53:23.885Z,21.27
2019-04-20T10:54:14.560Z,21.27
2019-04-20T10:55:08.373Z,21.27
2019-04-20T10:55:57.741Z,21.32
2019-04-20T10:56:49.776Z,21.33
2019-04-20T10:57:39.679Z,21.33
2019-04-20T10:58:31.766Z,21.36
2019-04-20T10:59:21.886Z,21.36
2019-04-20T11:00:13.547Z,21.37
2019-04-20T11:01:03.898Z,21.39
2019-04-20T11:01:55.946Z,21.38
2019-04-20T11:02:47.521Z,21.42
2019-04-20T11:03:36.606Z,21.45
2019-04-20T11:04:28.526Z,21.50
2019-04-20T11:05:18.596Z,21.63
2019-04-20T11:06:11.016Z,21.73
2019-04-20T11:07:02.862Z,21.73
2019-04-20T11:07:54.715Z,21.84
2019-04-20T11:08:44.572Z,21.91
2019-04-20T11:09:37.102Z,21.99
2019-04-20T11:10:30.462Z,22.13
2019-04-20T11:11:25.262Z,22.23
2019-04-20T11:12:10.580Z,22.23
2019-04-20T11:13:01.265Z,22.37
2019-04-20T11:13:51.699Z,22.45
2019-04-20T11:14:45.470Z,22.60
2019-04-20T11:15:32.902Z,22.66
2019-04-20T11:16:24.333Z,22.85
2019-04-20T11:17:14.262Z,22.85
2019-04-20T11:18:07.099Z,22.97
2019-04-20T11:18:57.630Z,23.07
2019-04-20T11:19:47.606Z,23.41
2019-04-20T11:20:39.406Z,23.72
2019-04-20T11:21:29.943Z,24.06
2019-04-20T11:22:20.077Z,24.06
2019-04-20T11:23:11.751Z,24.46
2019-04-20T11:24:02.555Z,24.84
2019-04-20T11:24:52.712Z,25.28
2019-04-20T11:25:44.194Z,25.81
2019-04-20T11:26:37.075Z,26.26
2019-04-20T11:27:25.990Z,26.77
2019-04-20T11:28:17.017Z,27.28
2019-04-20T11:29:09.212Z,27.84
2019-04-20T11:30:20.608Z,28.36
2019-04-20T11:31:12.437Z,28.88
2019-04-20T11:32:03.562Z,29.71
2019-04-20T11:32:54.298Z,30.23
2019-04-20T11:33:45.903Z,30.70
2019-04-20T11:34:39.951Z,31.20
2019-04-20T11:35:32.712Z,31.49
2019-04-20T11:36:19.191Z,31.87
2019-04-20T11:37:10.809Z,32.20
2019-04-20T11:38:00.975Z,32.43
2019-04-20T11:38:53.050Z,32.63
2019-04-20T11:39:47.394Z,32.73
2019-04-20T11:40:39.361Z,32.82
2019-04-20T11:41:34.038Z,32.86
2019-04-20T11:42:23.551Z,32.84
2019-04-20T11:43:15.620Z,32.96
2019-04-20T11:44:07.687Z,33.07
2019-04-20T11:44:57.955Z,33.16
2019-04-20T11:45:51.081Z,33.31
2019-04-20T11:46:42.925Z,33.50
2019-04-20T11:47:35.652Z,33.58
2019-04-20T11:48:25.741Z,33.78
2019-04-20T11:49:17.472Z,34.01
2019-04-20T11:50:07.410Z,34.23
2019-04-20T11:50:58.563Z,34.56
2019-04-20T11:51:51.855Z,34.81
2019-04-20T11:52:44.580Z,35.15
2019-04-20T11:53:34.272Z,35.53